createdAt,value
2018-05-04T00:01:18.400Z,11.00
2018-05-04T00:03:45.822Z,11.00
2018-05-04T00:06:14.006Z,11.00
2018-05-04T00:08:42.223Z,11.00
2018-05-04T00:11:10.396Z,11.00
2018-05-04T00:13:38.569Z,11.00
2018-05-04T00:16:06.764Z,10.90
2018-05-04T00:18:34.953Z,11.00
2018-05-04T00:21:03.157Z,10.90
2018-05-04T00:23:31.334Z,10.90
2018-05-04T00:25:59.513Z,10.90
2018-05-04T00:28:27.701Z,10.80
2018-05-04T00:30:55.883Z,10.80
2018-05-04T00:33:24.069Z,10.80
2018-05-04T00:35:52.253Z,10.80
2018-05-04T00:38:20.461Z,10.70
2018-05-04T00:40:47.970Z,10.80
2018-05-04T00:43:15.409Z,10.80
2018-05-04T00:45:42.837Z,10.70
2018-05-04T00:48:10.260Z,10.70
2018-05-04T00:50:37.672Z,10.70
2018-05-04T00:53:05.878Z,10.60
2018-05-04T00:55:34.045Z,10.60
2018-05-04T00:58:01.474Z,10.60
2018-05-04T01:00:28.899Z,10.60
2018-05-04T01:02:56.320Z,10.50
2018-05-04T01:05:23.761Z,10.50
2018-05-04T01:07:51.172Z,10.50
2018-05-04T01:10:18.600Z,10.40
2018-05-04T01:12:46.058Z,10.40
2018-05-04T01:15:13.496Z,10.40
2018-05-04T01:17:41.686Z,10.40
2018-05-04T01:20:09.866Z,10.50
2018-05-04T01:22:37.284Z,10.40
2018-05-04T01:25:04.701Z,10.40
2018-05-04T01:27:32.134Z,10.40
2018-05-04T01:29:59.561Z,10.40
2018-05-04T01:32:27.745Z,10.40
2018-05-04T01:34:55.931Z,10.40
2018-05-04T01:37:24.118Z,10.40
2018-05-04T01:39:52.309Z,10.30
2018-05-04T01:42:20.495Z,10.30
2018-05-04T01:44:48.690Z,10.30
2018-05-04T01:47:16.104Z,10.30
2018-05-04T01:49:43.527Z,10.30
2018-05-04T01:52:10.945Z,10.30
2018-05-04T01:54:38.373Z,10.30
2018-05-04T01:57:05.797Z,10.30
2018-05-04T01:59:34.016Z,10.30
2018-05-04T02:02:01.430Z,10.30
2018-05-04T02:04:28.859Z,10.30
2018-05-04T02:06:56.278Z,10.20
2018-05-04T02:09:23.704Z,10.30
2018-05-04T02:11:51.165Z,10.20
2018-05-04T02:14:18.621Z,10.20
2018-05-04T02:16:46.038Z,10.20
2018-05-04T02:19:13.461Z,10.20
2018-05-04T02:21:40.872Z,10.20
2018-05-04T02:24:08.301Z,10.20
2018-05-04T02:26:35.748Z,10.20
2018-05-04T02:29:03.933Z,10.10
2018-05-04T02:31:32.134Z,10.20
2018-05-04T02:34:00.322Z,10.20
2018-05-04T02:36:27.768Z,10.10
2018-05-04T02:38:55.185Z,10.10
2018-05-04T02:41:22.606Z,10.10
2018-05-04T02:43:50.029Z,10.10
2018-05-04T02:46:17.454Z,10.10
2018-05-04T02:48:45.641Z,10.00
2018-05-04T02:51:13.836Z,10.00
2018-05-04T02:53:41.261Z,10.00
2018-05-04T02:56:08.693Z,10.00
2018-05-04T02:58:36.113Z,10.00
2018-05-04T03:01:04.307Z,9.90
2018-05-04T03:03:32.481Z,9.90
2018-05-04T03:05:59.910Z,9.90
2018-05-04T03:08:27.341Z,9.90
2018-05-04T03:10:55.542Z,9.90
2018-05-04T03:13:23.715Z,9.90
2018-05-04T03:15:51.904Z,9.80
2018-05-04T03:18:20.095Z,9.80
2018-05-04T03:20:48.271Z,9.80
2018-05-04T03:23:16.453Z,9.80
2018-05-04T03:25:44.642Z,9.80
2018-05-04T03:28:12.817Z,9.80
2018-05-04T03:30:40.250Z,9.70
2018-05-04T03:33:07.677Z,9.80
2018-05-04T03:35:35.859Z,9.70
2018-05-04T03:38:04.039Z,9.80
2018-05-04T03:40:32.240Z,9.80
2018-05-04T03:42:59.663Z,9.70
2018-05-04T03:45:27.085Z,9.70
2018-05-04T03:47:55.347Z,9.80
2018-05-04T03:50:23.529Z,9.80
2018-05-04T03:52:51.712Z,9.70
2018-05-04T03:55:19.914Z,9.70
2018-05-04T03:57:59.312Z,9.70
2018-05-04T04:00:38.774Z,9.70
2018-05-04T04:03:18.109Z,9.70
2018-05-04T04:05:45.502Z,9.70
2018-05-04T04:08:12.927Z,9.70
2018-05-04T04:10:40.348Z,9.70
2018-05-04T04:13:08.533Z,9.70
2018-05-04T04:15:35.944Z,9.70
2018-05-04T04:18:03.403Z,9.60
2018-05-04T04:20:30.772Z,9.60
2018-05-04T04:22:58.189Z,9.60
2018-05-04T04:25:25.601Z,9.60
2018-05-04T04:27:53.023Z,9.60
2018-05-04T04:30:20.433Z,9.60
2018-05-04T04:32:48.663Z,9.60
2018-05-04T04:35:16.083Z,9.60
2018-05-04T04:37:44.257Z,9.70
2018-05-04T04:40:13.443Z,9.70
2018-05-04T04:42:40.861Z,9.70
2018-05-04T04:45:09.052Z,9.70
2018-05-04T04:47:36.457Z,9.70
2018-05-04T04:50:03.887Z,9.80
2018-05-04T04:52:31.314Z,9.80
2018-05-04T04:54:58.743Z,9.80
2018-05-04T04:57:26.171Z,9.80
2018-05-04T04:59:54.352Z,9.90
2018-05-04T05:02:22.544Z,9.90
2018-05-04T05:04:50.729Z,9.80
2018-05-04T05:07:18.980Z,9.90
2018-05-04T05:09:46.608Z,9.90
2018-05-04T05:12:14.362Z,9.90
2018-05-04T05:14:41.854Z,9.90
2018-05-04T05:17:10.046Z,9.90
2018-05-04T05:19:37.471Z,9.90
2018-05-04T05:22:05.130Z,10.00
2018-05-04T05:24:32.556Z,10.00
2018-05-04T05:27:00.058Z,10.00
2018-05-04T05:29:27.535Z,10.10
2018-05-04T05:31:54.954Z,10.10
2018-05-04T05:34:23.157Z,10.00
2018-05-04T05:36:50.598Z,10.00
2018-05-04T05:39:18.060Z,10.00
2018-05-04T05:41:45.485Z,10.00
2018-05-04T05:44:12.968Z,10.00
2018-05-04T05:46:41.060Z,10.10
2018-05-04T05:49:08.485Z,10.10
2018-05-04T05:51:35.901Z,10.10
2018-05-04T05:54:03.325Z,10.10
2018-05-04T05:56:30.756Z,10.10
2018-05-04T05:58:58.183Z,10.20
2018-05-04T06:01:25.672Z,10.20
2018-05-04T06:03:59.913Z,10.30
2018-05-04T06:06:28.038Z,10.30
2018-05-04T06:08:56.241Z,10.40
2018-05-04T06:11:23.681Z,10.30
2018-05-04T06:13:51.098Z,10.40
2018-05-04T06:16:18.524Z,10.50
2018-05-04T06:18:45.941Z,10.60
2018-05-04T06:21:13.446Z,10.60
2018-05-04T06:23:40.874Z,10.70
2018-05-04T06:26:08.319Z,10.70
2018-05-04T06:28:35.785Z,10.70
2018-05-04T06:31:04.011Z,10.90
2018-05-04T06:33:31.420Z,10.90
2018-05-04T06:35:59.615Z,11.00
2018-05-04T06:38:27.813Z,11.10
2018-05-04T06:40:56.001Z,11.20
2018-05-04T06:43:24.212Z,11.20
2018-05-04T06:45:51.683Z,11.10
2018-05-04T06:48:19.844Z,11.20
2018-05-04T06:50:48.028Z,11.10
2018-05-04T06:53:16.315Z,11.30
2018-05-04T06:55:43.653Z,11.30
2018-05-04T06:58:11.070Z,11.40
2018-05-04T07:00:38.534Z,11.40
2018-05-04T07:03:06.725Z,11.50
2018-05-04T07:05:34.153Z,11.50
2018-05-04T07:08:01.587Z,11.60
2018-05-04T07:10:29.048Z,11.60
2018-05-04T07:12:56.440Z,11.70
2018-05-04T07:15:23.872Z,11.70
2018-05-04T07:17:52.053Z,11.70
2018-05-04T07:20:20.237Z,11.80
2018-05-04T07:22:48.442Z,11.80
2018-05-04T07:25:15.858Z,11.80
2018-05-04T07:27:43.293Z,11.90
2018-05-04T07:30:10.708Z,11.90
2018-05-04T07:32:38.148Z,12.00
2018-05-04T07:35:05.570Z,12.10
2018-05-04T07:37:33.756Z,12.20
2018-05-04T07:40:02.000Z,12.20
2018-05-04T07:42:29.409Z,12.20
2018-05-04T07:44:57.625Z,12.30
2018-05-04T07:47:25.046Z,12.40
2018-05-04T07:49:52.609Z,12.50
2018-05-04T07:52:20.032Z,12.60
2018-05-04T07:54:47.458Z,12.70
2018-05-04T07:57:14.873Z,12.70
2018-05-04T07:59:42.290Z,12.70
2018-05-04T08:02:09.720Z,12.90
2018-05-04T08:04:37.138Z,12.90
2018-05-04T08:07:04.560Z,13.00
2018-05-04T08:09:32.001Z,13.00
2018-05-04T08:12:00.169Z,13.20
2018-05-04T08:14:28.365Z,13.30
2018-05-04T08:16:56.549Z,13.40
2018-05-04T08:19:24.750Z,13.40
2018-05-04T08:21:52.928Z,13.60
2018-05-04T08:24:21.135Z,13.70
2018-05-04T08:26:48.573Z,13.70
2018-05-04T08:29:15.985Z,13.80
2018-05-04T08:31:43.408Z,14.00
2018-05-04T08:34:10.832Z,13.90
2018-05-04T08:36:38.249Z,14.00
2018-05-04T08:39:05.664Z,14.10
2018-05-04T08:41:33.103Z,14.30
2018-05-04T08:44:01.297Z,14.40
2018-05-04T08:46:28.777Z,14.30
2018-05-04T08:48:56.943Z,14.50
2018-05-04T08:51:25.142Z,14.70
2018-05-04T08:53:53.333Z,14.80
2018-05-04T08:56:20.754Z,14.60
2018-05-04T08:58:48.175Z,14.60
2018-05-04T09:01:16.350Z,14.80
2018-05-04T09:03:44.539Z,14.90
2018-05-04T09:06:12.720Z,14.90
2018-05-04T09:08:40.908Z,14.90
2018-05-04T09:11:09.171Z,14.90
2018-05-04T09:13:36.510Z,15.00
2018-05-04T09:16:03.913Z,15.00
2018-05-04T09:18:31.332Z,15.10
2018-05-04T09:20:58.926Z,15.20
2018-05-04T09:23:26.349Z,15.30
2018-05-04T09:25:54.542Z,15.30
2018-05-04T09:28:21.964Z,15.30
2018-05-04T09:30:49.489Z,15.30
2018-05-04T09:33:16.825Z,15.30
2018-05-04T09:35:44.258Z,15.50
2018-05-04T09:38:11.678Z,15.60
2018-05-04T09:40:39.867Z,15.60
2018-05-04T09:43:08.069Z,15.70
2018-05-04T09:45:35.482Z,15.70
2018-05-04T09:48:02.915Z,15.80
2018-05-04T09:50:30.341Z,16.00
2018-05-04T09:52:57.802Z,15.90
2018-05-04T09:55:25.237Z,15.90
2018-05-04T09:57:52.683Z,15.90
2018-05-04T10:00:20.098Z,16.00
2018-05-04T10:02:47.529Z,16.00
2018-05-04T10:05:14.956Z,16.10
2018-05-04T10:07:42.383Z,16.20
2018-05-04T10:10:09.824Z,16.30
2018-05-04T10:12:37.992Z,16.50
2018-05-04T10:15:06.187Z,16.50
2018-05-04T10:17:34.368Z,16.60
2018-05-04T10:20:02.569Z,16.60
2018-05-04T10:22:30.751Z,16.70
2018-05-04T10:24:58.944Z,16.90
2018-05-04T10:27:27.142Z,17.10
2018-05-04T10:29:54.586Z,17.10
2018-05-04T10:32:22.001Z,17.10
2018-05-04T10:34:49.473Z,17.10
2018-05-04T10:37:16.932Z,17.10
2018-05-04T10:39:44.350Z,17.00
2018-05-04T10:42:11.774Z,16.90
2018-05-04T10:44:39.196Z,16.90
2018-05-04T10:47:06.614Z,17.10
2018-05-04T10:49:34.436Z,17.10
2018-05-04T10:52:01.854Z,17.00
2018-05-04T10:54:29.280Z,17.20
2018-05-04T10:56:56.703Z,17.20
2018-05-04T10:59:24.135Z,17.20
2018-05-04T11:01:52.335Z,17.30
2018-05-04T11:04:19.752Z,17.30
2018-05-04T11:06:47.191Z,17.50
2018-05-04T11:09:14.622Z,17.50
2018-05-04T11:11:42.048Z,17.60
2018-05-04T11:14:09.492Z,17.60
2018-05-04T11:16:37.672Z,17.80
2018-05-04T11:19:05.093Z,17.80
2018-05-04T11:21:32.516Z,18.00
2018-05-04T11:24:00.018Z,18.00
2018-05-04T11:26:27.434Z,18.00
2018-05-04T11:28:55.639Z,18.10
2018-05-04T11:31:23.820Z,18.10
2018-05-04T11:33:51.245Z,18.10
2018-05-04T11:36:18.677Z,18.10
2018-05-04T11:38:46.098Z,18.20
2018-05-04T11:41:13.525Z,18.40
2018-05-04T11:43:40.952Z,18.40
2018-05-04T11:46:09.146Z,18.50
2018-05-04T11:48:37.342Z,18.50
2018-05-04T11:51:04.769Z,18.50
2018-05-04T11:53:32.197Z,18.40
2018-05-04T11:55:59.638Z,18.50
2018-05-04T11:58:27.052Z,18.50
2018-05-04T12:00:54.472Z,18.60
2018-05-04T12:03:22.700Z,18.70
2018-05-04T12:05:50.125Z,18.70
2018-05-04T12:08:18.320Z,18.90
2018-05-04T12:10:46.535Z,19.10
2018-05-04T12:13:14.705Z,19.10
2018-05-04T12:15:42.913Z,19.00
2018-05-04T12:18:10.344Z,19.00
2018-05-04T12:20:37.772Z,18.90
2018-05-04T12:23:05.205Z,19.00
2018-05-04T12:25:32.630Z,19.10
2018-05-04T12:28:00.105Z,19.10
2018-05-04T12:30:27.551Z,19.20
2018-05-04T12:32:54.952Z,19.10
2018-05-04T12:35:22.370Z,19.10
2018-05-04T12:37:49.808Z,19.10
2018-05-04T12:40:17.982Z,19.20
2018-05-04T12:42:46.156Z,19.30
2018-05-04T12:45:13.634Z,19.20
2018-05-04T12:47:41.028Z,19.30
2018-05-04T12:50:08.463Z,19.30
2018-05-04T12:52:35.880Z,19.40
2018-05-04T12:55:03.296Z,19.40
2018-05-04T12:57:30.731Z,19.40
2018-05-04T12:59:58.170Z,19.40
2018-05-04T13:02:26.349Z,19.50
2018-05-04T13:04:54.547Z,19.40
2018-05-04T13:07:22.774Z,19.50
2018-05-04T13:09:50.198Z,19.40
2018-05-04T13:12:18.384Z,19.60
2018-05-04T13:14:46.572Z,19.50
2018-05-04T13:17:14.758Z,19.70
2018-05-04T13:19:42.952Z,19.60
2018-05-04T13:22:10.378Z,19.60
2018-05-04T13:24:37.805Z,19.70
2018-05-04T13:27:05.224Z,19.80
2018-05-04T13:29:32.672Z,19.80
2018-05-04T13:32:00.117Z,19.70
2018-05-04T13:34:28.293Z,19.80
2018-05-04T13:36:55.727Z,19.80
2018-05-04T13:39:23.156Z,20.10
2018-05-04T13:41:50.659Z,20.10
2018-05-04T13:44:18.792Z,20.00
2018-05-04T13:46:46.200Z,20.00
2018-05-04T13:49:13.647Z,20.10
2018-05-04T13:51:41.151Z,20.20
2018-05-04T13:54:08.506Z,20.20
2018-05-04T13:56:35.921Z,20.40
2018-05-04T13:59:04.133Z,20.40
2018-05-04T14:01:31.532Z,20.40
2018-05-04T14:03:59.065Z,20.50
2018-05-04T14:06:26.409Z,20.40
2018-05-04T14:08:54.585Z,20.40
2018-05-04T14:11:22.018Z,20.40
2018-05-04T14:13:49.437Z,20.70
2018-05-04T14:16:17.625Z,20.70
2018-05-04T14:18:45.809Z,20.90
2018-05-04T14:21:13.240Z,20.90
2018-05-04T14:23:40.665Z,21.60
2018-05-04T14:26:08.093Z,22.30
2018-05-04T14:28:35.521Z,23.50
2018-05-04T14:31:02.942Z,23.60
2018-05-04T14:33:30.388Z,23.90
2018-05-04T14:35:57.806Z,24.70
2018-05-04T14:38:25.998Z,23.00
2018-05-04T14:40:54.217Z,22.20
2018-05-04T14:43:21.614Z,22.10
2018-05-04T14:45:49.036Z,21.70
2018-05-04T14:48:16.457Z,21.90
2018-05-04T14:50:43.875Z,21.90
2018-05-04T14:53:11.339Z,21.70
2018-05-04T14:55:38.768Z,21.60
2018-05-04T14:58:06.630Z,21.30
2018-05-04T15:00:34.061Z,21.30
2018-05-04T15:03:01.502Z,21.40
2018-05-04T15:05:29.694Z,21.80
2018-05-04T15:07:57.881Z,21.50
2018-05-04T15:10:26.073Z,21.80
2018-05-04T15:12:54.264Z,21.80
2018-05-04T15:15:21.694Z,21.70
2018-05-04T15:17:49.122Z,22.00
2018-05-04T15:20:16.537Z,22.00
2018-05-04T15:22:43.956Z,22.10
2018-05-04T15:25:11.401Z,21.90
2018-05-04T15:27:39.570Z,21.90
2018-05-04T15:30:07.791Z,22.10
2018-05-04T15:32:35.832Z,22.30
2018-05-04T15:35:04.040Z,22.30
2018-05-04T15:37:32.617Z,22.40
2018-05-04T15:40:00.843Z,22.50
2018-05-04T15:42:29.022Z,22.20
2018-05-04T15:44:56.436Z,22.20
2018-05-04T15:47:23.877Z,22.30
2018-05-04T15:49:51.303Z,22.70
2018-05-04T15:52:18.711Z,22.80
2018-05-04T15:54:46.970Z,22.70
2018-05-04T15:57:14.316Z,22.80
2018-05-04T15:59:41.740Z,22.70
2018-05-04T16:02:09.158Z,23.00
2018-05-04T16:04:37.364Z,23.00
2018-05-04T16:07:05.554Z,23.20
2018-05-04T16:09:32.969Z,23.10
2018-05-04T16:12:00.400Z,23.20
2018-05-04T16:14:27.834Z,23.70
2018-05-04T16:16:55.272Z,23.50
2018-05-04T16:19:22.690Z,23.50
2018-05-04T16:21:50.893Z,23.20
2018-05-04T16:24:19.096Z,23.30
2018-05-04T16:26:46.532Z,23.30
2018-05-04T16:29:14.735Z,23.50
2018-05-04T16:31:42.934Z,23.30
2018-05-04T16:34:10.359Z,23.30
2018-05-04T16:36:37.770Z,23.40
2018-05-04T16:39:05.188Z,23.70
2018-05-04T16:41:32.642Z,23.70
2018-05-04T16:44:00.035Z,23.80
2018-05-04T16:46:33.271Z,23.90
2018-05-04T16:49:06.399Z,23.70
2018-05-04T16:51:33.816Z,23.90
2018-05-04T16:54:01.240Z,24.30
2018-05-04T16:56:28.679Z,25.40
2018-05-04T16:58:56.863Z,26.10
2018-05-04T17:01:25.060Z,25.30
2018-05-04T17:03:52.469Z,25.70
2018-05-04T17:06:19.919Z,25.70
2018-05-04T17:08:48.070Z,25.60
2018-05-04T17:11:16.250Z,25.30
2018-05-04T17:13:44.444Z,25.10
2018-05-04T17:16:12.628Z,25.30
2018-05-04T17:18:40.833Z,25.20
2018-05-04T17:21:08.242Z,25.20
2018-05-04T17:23:36.438Z,24.40
2018-05-04T17:26:03.849Z,24.40
2018-05-04T17:28:31.311Z,24.00
2018-05-04T17:30:58.712Z,24.10
2018-05-04T17:33:26.121Z,23.70
2018-05-04T17:35:53.559Z,24.40
2018-05-04T17:38:20.972Z,24.10
2018-05-04T17:40:49.183Z,23.30
2018-05-04T17:43:17.365Z,23.20
2018-05-04T17:45:45.546Z,23.20
2018-05-04T17:48:13.732Z,22.30
2018-05-04T17:50:41.916Z,21.90
2018-05-04T17:53:10.109Z,21.80
2018-05-04T17:55:38.298Z,21.70
2018-05-04T17:58:06.896Z,21.50
2018-05-04T18:00:35.091Z,21.70
2018-05-04T18:03:03.322Z,21.40
2018-05-04T18:05:30.714Z,21.40
2018-05-04T18:07:58.125Z,20.80
2018-05-04T18:10:25.557Z,21.00
2018-05-04T18:12:52.968Z,20.90
2018-05-04T18:15:20.390Z,20.50
2018-05-04T18:17:47.809Z,20.60
2018-05-04T18:20:15.245Z,20.10
2018-05-04T18:22:43.449Z,19.20
2018-05-04T18:25:11.621Z,19.00
2018-05-04T18:27:39.817Z,18.80
2018-05-04T18:30:08.004Z,18.50
2018-05-04T18:32:36.190Z,18.30
2018-05-04T18:35:03.616Z,18.30
2018-05-04T18:37:31.047Z,18.10
2018-05-04T18:39:59.233Z,17.90
2018-05-04T18:42:26.650Z,17.80
2018-05-04T18:44:54.085Z,17.70
2018-05-04T18:47:21.506Z,17.50
2018-05-04T18:49:48.955Z,17.50
2018-05-04T18:52:16.380Z,17.40
2018-05-04T18:54:43.797Z,17.30
2018-05-04T18:57:11.221Z,17.10
2018-05-04T18:59:38.637Z,17.10
2018-05-04T19:02:06.067Z,17.10
2018-05-04T19:04:33.488Z,17.00
2018-05-04T19:07:00.936Z,16.80
2018-05-04T19:09:28.348Z,16.80
2018-05-04T19:11:56.543Z,16.70
2018-05-04T19:14:23.980Z,16.70
2018-05-04T19:16:51.389Z,16.70
2018-05-04T19:19:18.808Z,16.70
2018-05-04T19:21:46.232Z,16.60
2018-05-04T19:24:13.660Z,16.60
2018-05-04T19:26:41.108Z,16.50
2018-05-04T19:29:08.610Z,16.50
2018-05-04T19:31:36.703Z,16.40
2018-05-04T19:34:04.893Z,16.40
2018-05-04T19:36:32.713Z,16.30
2018-05-04T19:39:00.130Z,16.30
2018-05-04T19:41:28.319Z,16.20
2018-05-04T19:43:56.508Z,16.20
2018-05-04T19:46:24.697Z,16.10
2018-05-04T19:48:52.893Z,16.10
2018-05-04T19:51:20.314Z,16.10
2018-05-04T19:53:47.749Z,16.00
2018-05-04T19:56:15.156Z,16.00
2018-05-04T19:58:42.698Z,16.00
2018-05-04T20:01:10.045Z,16.00
2018-05-04T20:03:37.483Z,16.00
2018-05-04T20:06:04.911Z,15.90
2018-05-04T20:08:32.360Z,15.90
2018-05-04T20:10:59.789Z,15.80
2018-05-04T20:13:27.256Z,15.80
2018-05-04T20:15:54.673Z,15.70
2018-05-04T20:18:22.112Z,15.70
2018-05-04T20:20:49.509Z,15.70
2018-05-04T20:23:16.921Z,15.70
2018-05-04T20:25:44.347Z,15.60
2018-05-04T20:28:11.785Z,15.60
2018-05-04T20:30:39.971Z,15.50
2018-05-04T20:33:08.157Z,15.40
2018-05-04T20:35:36.356Z,15.40
2018-05-04T20:38:04.581Z,15.40
2018-05-04T20:40:32.001Z,15.40
2018-05-04T20:43:00.192Z,15.30
2018-05-04T20:45:28.384Z,15.30
2018-05-04T20:47:56.558Z,15.30
2018-05-04T20:50:24.752Z,15.30
2018-05-04T20:52:52.939Z,15.30
2018-05-04T20:55:21.132Z,15.20
2018-05-04T20:57:49.323Z,15.20
2018-05-04T21:00:17.518Z,15.20
2018-05-04T21:02:44.948Z,15.20
2018-05-04T21:05:12.388Z,15.20
2018-05-04T21:07:39.805Z,15.20
2018-05-04T21:10:07.993Z,15.10
2018-05-04T21:12:36.172Z,15.00
2018-05-04T21:15:03.625Z,15.00
2018-05-04T21:17:31.050Z,15.10
2018-05-04T21:19:58.511Z,15.00
2018-05-04T21:22:26.034Z,14.90
2018-05-04T21:24:53.485Z,14.90
2018-05-04T21:27:20.913Z,14.90
2018-05-04T21:29:48.335Z,14.90
2018-05-04T21:32:16.520Z,14.80
2018-05-04T21:34:44.706Z,14.70
2018-05-04T21:37:12.144Z,14.70
2018-05-04T21:39:39.540Z,14.70
2018-05-04T21:42:06.969Z,14.60
2018-05-04T21:44:35.171Z,14.60
2018-05-04T21:47:02.590Z,14.60
2018-05-04T21:49:30.007Z,14.50
2018-05-04T21:51:57.514Z,14.40
2018-05-04T21:54:24.859Z,14.40
2018-05-04T21:56:52.276Z,14.30
2018-05-04T21:59:19.697Z,14.20
2018-05-04T22:01:47.123Z,14.20
2018-05-04T22:04:15.305Z,14.10
2018-05-04T22:06:43.500Z,14.00
2018-05-04T22:09:11.706Z,13.90
2018-05-04T22:11:39.894Z,13.80
2018-05-04T22:14:07.338Z,13.80
2018-05-04T22:16:34.761Z,13.70
2018-05-04T22:19:02.188Z,13.70
2018-05-04T22:21:29.636Z,13.60
2018-05-04T22:23:57.029Z,13.60
2018-05-04T22:26:25.265Z,13.60
2018-05-04T22:28:53.409Z,13.40
2018-05-04T22:31:21.588Z,13.40
2018-05-04T22:33:49.797Z,13.40
2018-05-04T22:36:17.222Z,13.30
2018-05-04T22:38:44.648Z,13.40
2018-05-04T22:41:12.062Z,13.30
2018-05-04T22:43:39.472Z,13.30
2018-05-04T22:46:06.899Z,13.30
2018-05-04T22:48:34.314Z,13.30
2018-05-04T22:51:01.755Z,13.20
2018-05-04T22:53:29.938Z,13.20
2018-05-04T22:55:58.129Z,13.20
2018-05-04T22:58:26.347Z,13.10
2018-05-04T23:00:53.775Z,13.10
2018-05-04T23:03:21.190Z,13.10
2018-05-04T23:05:48.617Z,13.10
2018-05-04T23:08:16.808Z,13.00
2018-05-04T23:10:44.221Z,13.00
2018-05-04T23:13:11.648Z,13.00
2018-05-04T23:15:39.829Z,13.00
2018-05-04T23:18:08.023Z,13.00
2018-05-04T23:20:36.217Z,12.90
2018-05-04T23:23:04.418Z,12.90
2018-05-04T23:25:31.829Z,12.90
2018-05-04T23:27:59.264Z,12.90
2018-05-04T23:30:26.696Z,12.80
2018-05-04T23:32:54.274Z,12.80
2018-05-04T23:35:22.461Z,12.80
2018-05-04T23:37:50.654Z,12.70
2018-05-04T23:40:18.948Z,12.70
2018-05-04T23:42:46.365Z,12.70
2018-05-04T23:45:13.812Z,12.60
2018-05-04T23:47:41.224Z,12.60
2018-05-04T23:50:08.661Z,12.60
2018-05-04T23:52:36.097Z,12.50
2018-05-04T23:55:04.295Z,12.50
2018-05-04T23:57:31.721Z,12.50
2018-05-04T23:59:59.132Z,12.40
